Terminal Aerodrome Forecast
Issued by NWS

Current Version | Previous Version | Text Only | Print | Product List | Glossary On
Versions: 1 2 3 4 5 6 7 8 9 10 11 12 13 14 15 16 17 18 19 20
644
FTUS42 KFFC 302135 AAB
TAFPDK
TAF AMD
KPDK 302135Z 3022/3118 20007KT P6SM VCSH SCT040 BKN120
     FM310200 24005KT P6SM SCT250
     FM310900 24003KT P6SM SCT035
     FM311000 25003KT P6SM BKN035
     FM311300 25004KT P6SM SCT035 PROB30 3115/3118 SHRA BKN045=

USA.gov is the U.S. government's official web portal to all federal, state and local government web resources and services.